Time;durP1;ratioP1;P1;durP2;ratioP2;P2;SDS_P1;SDS_P2;PMS_P1;PMS_P2;Temp;Humidity;BMP_temperature;BMP_pressure;BME280_temperature;BME280_humidity;BME280_pressure;Samples;Min_cycle;Max_cycle;Signal;HPM_P1;HPM_P2
2023/04/05 00:03:58;;;;;;;6.20;5.60;;;;;;;;;;10147227;28;20040;-62
2023/04/05 00:08:59;;;;;;;5.10;4.60;;;;;;;;;;10146487;28;20052;-62
2023/04/05 00:13:52;;;;;;;5.70;5.15;;;;;;;;;;10147081;28;20049;-62
2023/04/05 00:18:50;;;;;;;8.07;5.80;;;;;;;;;;10139776;28;20102;-62
2023/04/05 00:23:43;;;;;;;8.20;4.45;;;;;;;;;;10146730;28;20051;-62
2023/04/05 00:28:37;;;;;;;5.95;4.85;;;;;;;;;;10146881;28;20059;-62
2023/04/05 00:33:31;;;;;;;9.55;5.72;;;;;;;;;;10128447;28;20494;-62
2023/04/05 00:38:24;;;;;;;5.75;5.15;;;;;;;;;;10128301;28;20048;-62
2023/04/05 00:43:17;;;;;;;6.32;4.65;;;;;;;;;;10145414;28;20054;-62
2023/04/05 00:48:10;;;;;;;9.10;5.75;;;;;;;;;;10145860;28;20060;-62
2023/04/05 00:53:04;;;;;;;7.18;4.25;;;;;;;;;;10130100;28;20087;-62
2023/04/05 00:57:58;;;;;;;6.47;5.00;;;;;;;;;;10128851;28;20059;-62
2023/04/05 01:02:52;;;;;;;7.90;5.22;;;;;;;;;;10146469;28;20055;-62
2023/04/05 01:08:15;;;;;;;8.70;5.30;;;;;;;;;;10127719;28;20110;-62
2023/04/05 01:13:09;;;;;;;6.30;5.30;;;;;;;;;;10136899;28;20052;-62
2023/04/05 01:18:03;;;;;;;10.77;5.28;;;;;;;;;;10145532;28;20051;-62
2023/04/05 01:23:18;;;;;;;6.20;4.78;;;;;;;;;;10142864;28;20052;-62
2023/04/05 01:28:29;;;;;;;8.50;5.63;;;;;;;;;;10141537;28;20045;-63
2023/04/05 01:33:33;;;;;;;7.97;6.03;;;;;;;;;;10145231;28;20452;-62
2023/04/05 01:38:27;;;;;;;7.22;6.45;;;;;;;;;;10121795;28;20048;-63
2023/04/05 01:43:19;;;;;;;9.52;7.30;;;;;;;;;;10127379;28;20064;-63
2023/04/05 01:48:13;;;;;;;7.88;5.72;;;;;;;;;;10145232;28;20557;-63
2023/04/05 01:53:08;;;;;;;7.15;6.45;;;;;;;;;;10126693;28;20061;-62
2023/04/05 01:58:00;;;;;;;7.25;5.60;;;;;;;;;;10144135;28;20041;-62
2023/04/05 02:02:54;;;;;;;14.40;6.60;;;;;;;;;;10126888;28;20147;-62
2023/04/05 02:07:51;;;;;;;6.70;5.28;;;;;;;;;;10126538;28;20101;-63
2023/04/05 02:12:45;;;;;;;7.82;5.50;;;;;;;;;;10144176;28;20504;-63
2023/04/05 02:17:38;;;;;;;8.20;5.65;;;;;;;;;;10126213;28;20044;-63
2023/04/05 02:22:32;;;;;;;6.57;5.68;;;;;;;;;;10133202;28;20053;-63
2023/04/05 02:27:24;;;;;;;8.13;5.82;;;;;;;;;;10125007;28;20045;-62
2023/04/05 02:32:18;;;;;;;6.05;5.47;;;;;;;;;;10120468;28;20041;-62
2023/04/05 02:37:11;;;;;;;9.52;6.13;;;;;;;;;;10151119;28;20054;-62
2023/04/05 02:42:05;;;;;;;5.60;5.05;;;;;;;;;;10139519;28;20080;-62
2023/04/05 02:46:59;;;;;;;6.80;4.90;;;;;;;;;;10131001;28;20136;-62
2023/04/05 02:51:56;;;;;;;6.13;5.07;;;;;;;;;;10132005;28;20055;-62
2023/04/05 02:56:48;;;;;;;5.45;4.88;;;;;;;;;;10132238;28;20048;-62
2023/04/05 03:01:43;;;;;;;9.82;5.78;;;;;;;;;;10149962;28;20098;-62
2023/04/05 03:06:47;;;;;;;7.18;5.65;;;;;;;;;;10131974;28;20505;-62
2023/04/05 03:11:44;;;;;;;6.65;5.82;;;;;;;;;;10139693;28;20049;-62
2023/04/05 03:16:40;;;;;;;7.25;6.05;;;;;;;;;;10131687;28;20040;-62
2023/04/05 03:21:45;;;;;;;8.02;6.95;;;;;;;;;;10131194;28;20044;-63
2023/04/05 03:26:48;;;;;;;6.22;5.63;;;;;;;;;;10130942;28;20409;-62
2023/04/05 03:31:45;;;;;;;13.15;6.78;;;;;;;;;;10131173;28;20408;-62
2023/04/05 03:36:44;;;;;;;11.17;6.47;;;;;;;;;;10148689;28;20040;-63
2023/04/05 03:41:49;;;;;;;7.65;6.65;;;;;;;;;;10129356;28;20468;-62
2023/04/05 03:46:42;;;;;;;5.90;5.28;;;;;;;;;;10152066;28;20060;-62
2023/04/05 03:51:37;;;;;;;5.53;5.03;;;;;;;;;;10148316;28;20123;-63
2023/04/05 03:56:31;;;;;;;9.95;7.18;;;;;;;;;;10148183;28;20052;-62
2023/04/05 04:01:32;;;;;;;6.30;4.97;;;;;;;;;;10128897;28;20079;-62
2023/04/05 04:06:26;;;;;;;6.53;5.70;;;;;;;;;;10129798;28;20079;-62
2023/04/05 04:11:19;;;;;;;6.45;5.32;;;;;;;;;;10113286;28;20052;-62
2023/04/05 04:16:13;;;;;;;9.98;6.60;;;;;;;;;;10128932;28;20040;-62
2023/04/05 04:21:20;;;;;;;8.68;7.60;;;;;;;;;;10129219;28;20044;-62
2023/04/05 04:26:42;;;;;;;9.75;7.53;;;;;;;;;;10088009;28;20055;-62
2023/04/05 04:31:54;;;;;;;10.13;7.00;;;;;;;;;;10147184;28;20083;-62
2023/04/05 04:37:04;;;;;;;9.17;8.27;;;;;;;;;;10137669;28;20055;-62
2023/04/05 04:42:37;;;;;;;8.20;7.40;;;;;;;;;;10121110;28;20063;-62
2023/04/05 04:47:48;;;;;;;19.55;15.02;;;;;;;;;;10144960;28;20059;-62
2023/04/05 04:52:49;;;;;;;21.70;11.80;;;;;;;;;;10149059;28;20040;-61
2023/04/05 04:57:43;;;;;;;14.52;12.38;;;;;;;;;;10144799;28;20098;-61
2023/04/05 05:02:36;;;;;;;15.25;9.50;;;;;;;;;;10145270;28;20099;-62
2023/04/05 05:07:30;;;;;;;20.13;10.43;;;;;;;;;;10145160;28;20056;-62
2023/04/05 05:12:23;;;;;;;19.98;8.30;;;;;;;;;;10144771;28;20049;-62
2023/04/05 05:17:15;;;;;;;9.00;8.10;;;;;;;;;;10146104;28;20040;-61
2023/04/05 05:22:09;;;;;;;8.57;7.75;;;;;;;;;;10143936;28;20448;-62
2023/04/05 05:27:02;;;;;;;11.70;9.18;;;;;;;;;;10144138;28;20060;-64
2023/04/05 05:31:56;;;;;;;9.43;7.55;;;;;;;;;;10144810;28;20041;-66
2023/04/05 05:36:51;;;;;;;9.43;8.10;;;;;;;;;;10135944;28;20420;-63
2023/04/05 05:41:43;;;;;;;9.15;8.25;;;;;;;;;;10144890;28;20045;-62
2023/04/05 05:46:37;;;;;;;9.82;8.93;;;;;;;;;;10131773;28;20106;-62
2023/04/05 05:51:34;;;;;;;10.90;9.80;;;;;;;;;;10139690;28;20086;-62
2023/04/05 05:56:28;;;;;;;13.43;8.82;;;;;;;;;;10139768;28;20047;-62
2023/04/05 06:01:21;;;;;;;18.13;10.60;;;;;;;;;;10144177;28;20090;-62
2023/04/05 06:06:15;;;;;;;10.15;8.93;;;;;;;;;;10147957;28;20116;-62
2023/04/05 06:11:16;;;;;;;12.38;10.07;;;;;;;;;;10150833;28;20440;-62
2023/04/05 06:16:09;;;;;;;10.95;8.07;;;;;;;;;;10151835;28;20048;-62
2023/04/05 06:21:03;;;;;;;10.23;8.45;;;;;;;;;;10148923;28;20044;-64
2023/04/05 06:25:56;;;;;;;10.25;7.20;;;;;;;;;;10148470;28;20056;-63
2023/04/05 06:30:49;;;;;;;8.35;7.60;;;;;;;;;;10131158;28;20132;-64
2023/04/05 06:35:42;;;;;;;11.23;8.20;;;;;;;;;;10150680;28;20040;-63
2023/04/05 06:40:35;;;;;;;16.42;8.13;;;;;;;;;;10150537;28;20154;-63
2023/04/05 06:45:29;;;;;;;15.15;8.63;;;;;;;;;;10151472;28;20106;-63
2023/04/05 06:50:23;;;;;;;11.82;8.30;;;;;;;;;;10150482;28;20110;-63
2023/04/05 06:55:16;;;;;;;11.77;7.20;;;;;;;;;;10150825;28;20053;-63
2023/04/05 07:00:12;;;;;;;10.50;7.20;;;;;;;;;;10150144;28;20052;-63
2023/04/05 07:05:07;;;;;;;9.15;6.82;;;;;;;;;;10150336;28;20050;-63
2023/04/05 07:10:01;;;;;;;13.23;7.78;;;;;;;;;;10149484;28;20078;-63
2023/04/05 07:14:55;;;;;;;6.97;6.28;;;;;;;;;;10151036;28;20072;-63
2023/04/05 07:19:48;;;;;;;7.97;6.30;;;;;;;;;;10150038;28;20064;-63
2023/04/05 07:24:45;;;;;;;8.02;6.60;;;;;;;;;;10144347;28;20576;-63
2023/04/05 07:29:41;;;;;;;7.88;6.68;;;;;;;;;;10144952;28;20405;-63
2023/04/05 07:34:35;;;;;;;8.05;6.10;;;;;;;;;;10149006;28;20489;-63
2023/04/05 07:39:28;;;;;;;8.27;5.15;;;;;;;;;;10144862;28;20048;-63
2023/04/05 07:44:22;;;;;;;11.30;6.95;;;;;;;;;;10148216;28;20424;-64
2023/04/05 07:49:15;;;;;;;10.43;6.68;;;;;;;;;;10149114;28;20508;-63
2023/04/05 07:54:08;;;;;;;7.28;6.28;;;;;;;;;;10148155;28;20045;-63
2023/04/05 07:59:01;;;;;;;7.72;6.30;;;;;;;;;;10146595;28;20056;-63
2023/04/05 08:03:57;;;;;;;8.85;6.22;;;;;;;;;;10145821;28;20086;-62
2023/04/05 08:08:50;;;;;;;8.95;5.28;;;;;;;;;;10146476;28;20049;-61
2023/04/05 08:13:43;;;;;;;7.75;5.35;;;;;;;;;;10141564;28;20053;-61
2023/04/05 08:18:38;;;;;;;11.70;5.72;;;;;;;;;;10133804;28;20417;-62
2023/04/05 08:23:30;;;;;;;8.85;4.90;;;;;;;;;;10135738;28;20060;-62
2023/04/05 08:28:23;;;;;;;9.10;5.65;;;;;;;;;;10142094;28;20459;-62
2023/04/05 08:33:17;;;;;;;5.40;4.90;;;;;;;;;;10141471;28;20055;-62
2023/04/05 08:38:11;;;;;;;9.82;5.80;;;;;;;;;;10146044;28;20044;-62
2023/04/05 08:43:10;;;;;;;9.50;4.90;;;;;;;;;;10145410;28;20036;-62
2023/04/05 08:48:05;;;;;;;9.27;5.35;;;;;;;;;;10145304;28;20523;-62
2023/04/05 08:52:59;;;;;;;6.68;6.00;;;;;;;;;;10143142;28;20177;-62
2023/04/05 08:57:53;;;;;;;9.95;7.07;;;;;;;;;;10126432;28;20135;-62
2023/04/05 09:02:50;;;;;;;11.85;9.63;;;;;;;;;;10124054;28;20045;-63
2023/04/05 09:07:46;;;;;;;10.63;7.70;;;;;;;;;;10126925;28;20109;-63
2023/04/05 09:12:40;;;;;;;7.15;6.45;;;;;;;;;;10128408;28;20114;-62
2023/04/05 09:17:37;;;;;;;10.77;7.60;;;;;;;;;;10145391;28;20056;-62
2023/04/05 09:22:31;;;;;;;8.70;5.55;;;;;;;;;;10128049;28;20037;-62
2023/04/05 09:27:25;;;;;;;9.73;5.53;;;;;;;;;;10145368;28;20056;-62
2023/04/05 09:32:27;;;;;;;6.00;3.97;;;;;;;;;;10126869;28;20527;-62
2023/04/05 09:37:21;;;;;;;4.55;3.97;;;;;;;;;;10144674;28;20049;-62
2023/04/05 09:42:18;;;;;;;4.90;3.90;;;;;;;;;;10153763;28;20045;-62
2023/04/05 09:47:16;;;;;;;6.70;3.92;;;;;;;;;;10134902;28;20129;-63
2023/04/05 09:52:30;;;;;;;3.93;3.37;;;;;;;;;;10153318;28;20056;-63
2023/04/05 09:57:26;;;;;;;4.57;2.90;;;;;;;;;;10135165;28;20298;-62
2023/04/05 10:02:38;;;;;;;2.95;2.60;;;;;;;;;;10150342;28;20052;-62
2023/04/05 10:07:31;;;;;;;5.68;3.13;;;;;;;;;;10152602;28;20045;-62
2023/04/05 10:12:26;;;;;;;3.58;3.25;;;;;;;;;;10152294;28;20059;-62
2023/04/05 10:17:39;;;;;;;7.05;2.88;;;;;;;;;;10152338;28;20048;-62
2023/04/05 10:22:50;;;;;;;4.13;2.88;;;;;;;;;;10145451;28;20052;-62
2023/04/05 10:27:57;;;;;;;4.32;3.40;;;;;;;;;;10151880;28;20064;-62
2023/04/05 10:32:59;;;;;;;3.20;2.90;;;;;;;;;;10151555;28;20555;-62
2023/04/05 10:38:20;;;;;;;5.82;3.22;;;;;;;;;;10151411;28;20044;-62
2023/04/05 10:43:21;;;;;;;3.78;3.20;;;;;;;;;;10150748;28;20044;-62
2023/04/05 10:48:32;;;;;;;4.03;3.63;;;;;;;;;;10150336;28;20505;-62
2023/04/05 10:53:26;;;;;;;4.95;3.45;;;;;;;;;;10150097;28;20045;-62
2023/04/05 10:58:19;;;;;;;4.53;3.20;;;;;;;;;;10150144;28;20059;-62
2023/04/05 11:03:41;;;;;;;6.60;3.72;;;;;;;;;;10132968;28;20044;-63
2023/04/05 11:08:40;;;;;;;3.85;3.50;;;;;;;;;;10149266;28;20076;-62
2023/04/05 11:13:56;;;;;;;4.38;3.53;;;;;;;;;;10116294;28;20120;-62
2023/04/05 11:18:51;;;;;;;5.15;4.32;;;;;;;;;;10148456;28;20044;-62
2023/04/05 11:24:10;;;;;;;4.23;3.53;;;;;;;;;;10155457;28;20048;-62
2023/04/05 11:29:03;;;;;;;7.43;3.33;;;;;;;;;;10117743;28;20098;-62
2023/04/05 11:34:08;;;;;;;6.25;4.13;;;;;;;;;;10149136;28;20503;-64
2023/04/05 11:39:17;;;;;;;4.03;3.10;;;;;;;;;;10148486;28;20687;-61
2023/04/05 11:44:14;;;;;;;7.00;3.50;;;;;;;;;;10148329;28;20045;-63
2023/04/05 11:49:08;;;;;;;4.30;3.90;;;;;;;;;;10145733;28;20075;-61
2023/04/05 11:54:00;;;;;;;5.35;3.50;;;;;;;;;;10148945;28;20143;-63
2023/04/05 11:58:58;;;;;;;5.10;3.70;;;;;;;;;;10149137;28;20044;-63
2023/04/05 12:04:12;;;;;;;7.78;3.70;;;;;;;;;;10147637;28;20102;-64
2023/04/05 12:09:26;;;;;;;5.57;3.75;;;;;;;;;;10145811;28;20053;-63
2023/04/05 12:14:23;;;;;;;5.25;4.35;;;;;;;;;;10151000;28;20036;-62
2023/04/05 12:19:16;;;;;;;5.65;3.55;;;;;;;;;;10146851;28;20098;-62
2023/04/05 12:24:10;;;;;;;4.38;3.70;;;;;;;;;;10141937;28;20044;-62
2023/04/05 12:29:04;;;;;;;5.90;5.22;;;;;;;;;;10140259;28;20075;-63
2023/04/05 12:33:59;;;;;;;4.93;4.00;;;;;;;;;;10139744;28;20044;-63
2023/04/05 12:38:59;;;;;;;11.13;3.90;;;;;;;;;;10142369;28;20052;-63
2023/04/05 12:44:04;;;;;;;5.07;4.00;;;;;;;;;;10146459;28;20052;-62
2023/04/05 12:48:59;;;;;;;6.13;3.60;;;;;;;;;;10138498;28;20596;-63
2023/04/05 12:53:56;;;;;;;6.75;6.10;;;;;;;;;;10140007;28;20473;-63
2023/04/05 12:58:52;;;;;;;4.15;3.75;;;;;;;;;;10143889;28;20142;-62
2023/04/05 13:03:46;;;;;;;3.85;3.45;;;;;;;;;;10143946;28;20064;-62
2023/04/05 13:08:42;;;;;;;4.90;4.40;;;;;;;;;;10145276;28;20041;-62
2023/04/05 13:13:35;;;;;;;4.40;3.33;;;;;;;;;;10144502;28;20079;-62
2023/04/05 13:18:27;;;;;;;6.50;2.97;;;;;;;;;;10145794;28;20045;-62
2023/04/05 13:23:20;;;;;;;4.63;2.67;;;;;;;;;;10145511;28;20041;-62
2023/04/05 13:28:14;;;;;;;3.88;3.40;;;;;;;;;;10144978;28;20064;-62
2023/04/05 13:33:07;;;;;;;4.95;3.30;;;;;;;;;;10138909;28;20445;-62
2023/04/05 13:38:00;;;;;;;6.10;2.95;;;;;;;;;;10150430;28;20049;-62
2023/04/05 13:42:56;;;;;;;10.65;3.42;;;;;;;;;;10144791;28;20048;-62
2023/04/05 13:47:51;;;;;;;3.33;2.90;;;;;;;;;;10145332;28;20087;-62
2023/04/05 13:52:46;;;;;;;5.45;2.70;;;;;;;;;;10144955;28;20055;-61
2023/04/05 13:57:40;;;;;;;9.32;4.65;;;;;;;;;;10138021;28;20064;-61
2023/04/05 14:02:35;;;;;;;4.57;3.45;;;;;;;;;;10144564;28;20052;-62
2023/04/05 14:07:30;;;;;;;4.28;3.58;;;;;;;;;;10120096;28;20049;-62
2023/04/05 14:12:30;;;;;;;4.87;3.30;;;;;;;;;;10144493;28;20561;-62
2023/04/05 14:17:26;;;;;;;10.25;3.70;;;;;;;;;;10144447;28;20045;-62
2023/04/05 14:22:21;;;;;;;10.65;4.30;;;;;;;;;;10142463;28;20505;-62
2023/04/05 14:27:15;;;;;;;7.57;3.78;;;;;;;;;;10144469;28;20050;-61
2023/04/05 14:32:10;;;;;;;4.47;3.55;;;;;;;;;;10150397;28;20523;-62
2023/04/05 14:37:05;;;;;;;4.35;3.80;;;;;;;;;;10151153;28;20054;-62
2023/04/05 14:41:58;;;;;;;4.32;3.92;;;;;;;;;;10150866;28;20098;-62
2023/04/05 14:46:52;;;;;;;9.23;3.80;;;;;;;;;;10150692;28;20151;-61
2023/04/05 14:51:46;;;;;;;4.32;3.75;;;;;;;;;;10151392;28;20501;-62
2023/04/05 14:56:40;;;;;;;5.43;3.97;;;;;;;;;;10151686;28;20414;-62
2023/04/05 15:01:35;;;;;;;8.88;4.47;;;;;;;;;;10150310;28;20123;-62
2023/04/05 15:06:28;;;;;;;5.63;3.28;;;;;;;;;;10149991;28;20040;-62
2023/04/05 15:11:22;;;;;;;3.97;2.67;;;;;;;;;;10148155;28;20048;-61
2023/04/05 15:16:15;;;;;;;5.22;3.05;;;;;;;;;;10132212;28;20482;-62
2023/04/05 15:21:08;;;;;;;4.13;3.70;;;;;;;;;;10149370;28;20055;-62
2023/04/05 15:26:00;;;;;;;4.43;3.45;;;;;;;;;;10149332;28;20460;-62
2023/04/05 15:30:54;;;;;;;4.43;3.38;;;;;;;;;;10149381;28;20048;-61
2023/04/05 15:35:48;;;;;;;7.00;2.78;;;;;;;;;;10145361;28;20044;-61
2023/04/05 15:40:42;;;;;;;4.40;3.42;;;;;;;;;;10131628;28;20048;-61
2023/04/05 15:45:36;;;;;;;5.38;3.42;;;;;;;;;;10149002;28;20067;-61
2023/04/05 15:50:29;;;;;;;4.35;2.95;;;;;;;;;;10148577;28;20447;-63
2023/04/05 15:55:23;;;;;;;7.50;3.30;;;;;;;;;;10146159;28;20103;-62
2023/04/05 16:00:18;;;;;;;5.97;3.50;;;;;;;;;;10148124;28;20083;-61
2023/04/05 16:05:12;;;;;;;4.30;3.90;;;;;;;;;;10148347;28;20489;-62
2023/04/05 16:10:07;;;;;;;9.20;3.40;;;;;;;;;;10130151;28;20101;-62
2023/04/05 16:15:01;;;;;;;8.27;5.15;;;;;;;;;;10146495;28;20104;-63
2023/04/05 16:19:55;;;;;;;3.92;2.92;;;;;;;;;;10145518;28;20040;-63
2023/04/05 16:24:50;;;;;;;4.65;3.30;;;;;;;;;;10147815;28;20084;-64
2023/04/05 16:29:43;;;;;;;4.95;3.80;;;;;;;;;;10146217;28;20397;-63
2023/04/05 16:34:37;;;;;;;6.72;4.22;;;;;;;;;;10146103;28;20857;-63
2023/04/05 16:39:31;;;;;;;6.97;4.55;;;;;;;;;;10146905;28;20048;-63
2023/04/05 16:44:25;;;;;;;5.05;4.53;;;;;;;;;;10145715;28;20424;-63
2023/04/05 16:49:18;;;;;;;9.80;7.43;;;;;;;;;;10145623;28;20048;-63
2023/04/05 16:54:12;;;;;;;7.28;3.60;;;;;;;;;;10146913;28;20409;-63
2023/04/05 16:59:08;;;;;;;3.90;3.50;;;;;;;;;;10145544;28;20523;-63
2023/04/05 17:04:02;;;;;;;4.43;3.95;;;;;;;;;;10145347;28;20068;-63
2023/04/05 17:08:56;;;;;;;7.38;5.45;;;;;;;;;;10146699;28;20540;-62
2023/04/05 17:13:50;;;;;;;4.40;3.78;;;;;;;;;;10145284;28;20485;-63
2023/04/05 17:18:43;;;;;;;4.65;3.80;;;;;;;;;;10145314;28;20493;-63
2023/04/05 17:23:36;;;;;;;8.73;3.60;;;;;;;;;;10145753;28;20048;-63
2023/04/05 17:28:31;;;;;;;4.38;3.97;;;;;;;;;;10145462;28;20058;-63
2023/04/05 17:33:24;;;;;;;5.72;3.38;;;;;;;;;;10145816;28;20052;-63
2023/04/05 17:38:17;;;;;;;5.05;4.03;;;;;;;;;;10128000;28;20075;-64
2023/04/05 17:43:13;;;;;;;6.22;3.70;;;;;;;;;;10144871;28;20551;-63
2023/04/05 17:48:07;;;;;;;5.75;3.40;;;;;;;;;;10127189;28;20052;-64
2023/04/05 17:53:01;;;;;;;4.45;3.78;;;;;;;;;;10144948;28;20155;-63
2023/04/05 17:57:55;;;;;;;13.05;6.20;;;;;;;;;;10144773;28;20053;-62
2023/04/05 18:02:49;;;;;;;9.95;7.40;;;;;;;;;;10147731;28;20048;-64
2023/04/05 18:07:44;;;;;;;5.55;4.63;;;;;;;;;;10152075;28;20052;-63
2023/04/05 18:12:37;;;;;;;7.93;4.35;;;;;;;;;;10153665;28;20045;-63
2023/04/05 18:17:29;;;;;;;9.15;5.13;;;;;;;;;;10151277;28;20059;-64
2023/04/05 18:22:22;;;;;;;7.10;4.80;;;;;;;;;;10154182;28;20040;-63
2023/04/05 18:27:16;;;;;;;5.85;3.88;;;;;;;;;;10152811;28;20134;-63
2023/04/05 18:32:09;;;;;;;5.72;4.88;;;;;;;;;;10150512;28;20082;-63
2023/04/05 18:37:05;;;;;;;7.93;4.78;;;;;;;;;;10151446;28;20055;-63
2023/04/05 18:42:01;;;;;;;9.50;4.45;;;;;;;;;;10154366;28;20542;-64
2023/04/05 18:46:55;;;;;;;5.30;4.40;;;;;;;;;;10148279;28;20087;-64
2023/04/05 18:51:48;;;;;;;6.78;3.97;;;;;;;;;;10144752;28;20115;-63
2023/04/05 18:56:43;;;;;;;8.13;5.28;;;;;;;;;;10134196;28;20056;-63
2023/04/05 19:01:36;;;;;;;8.20;5.90;;;;;;;;;;10125109;28;20064;-63
2023/04/05 19:06:31;;;;;;;6.80;4.72;;;;;;;;;;10139384;28;20064;-63
2023/04/05 19:11:25;;;;;;;8.25;4.13;;;;;;;;;;10145834;28;20065;-63
2023/04/05 19:16:18;;;;;;;6.10;4.60;;;;;;;;;;10140474;28;20049;-64
2023/04/05 19:21:12;;;;;;;5.40;4.00;;;;;;;;;;10145498;28;20134;-63
2023/04/05 19:26:06;;;;;;;5.97;4.60;;;;;;;;;;10147480;28;20453;-63
2023/04/05 19:31:00;;;;;;;6.78;5.35;;;;;;;;;;10151190;28;20048;-63
2023/04/05 19:35:54;;;;;;;11.30;5.47;;;;;;;;;;10145350;28;20040;-63
2023/04/05 19:40:48;;;;;;;8.48;6.68;;;;;;;;;;10160893;28;20390;-63
2023/04/05 19:45:43;;;;;;;12.75;6.63;;;;;;;;;;10146593;28;20059;-63
2023/04/05 19:50:50;;;;;;;8.95;6.80;;;;;;;;;;10137648;28;20075;-63
2023/04/05 19:55:49;;;;;;;8.25;6.57;;;;;;;;;;10133128;28;20055;-63
2023/04/05 20:00:51;;;;;;;8.75;6.85;;;;;;;;;;10131140;28;20052;-62
2023/04/05 20:06:06;;;;;;;8.45;7.03;;;;;;;;;;10133757;28;20036;-64
2023/04/05 20:10:58;;;;;;;11.55;7.47;;;;;;;;;;10137801;28;20068;-64
2023/04/05 20:15:52;;;;;;;10.35;8.18;;;;;;;;;;10130076;28;20497;-63
2023/04/05 20:20:47;;;;;;;14.93;9.32;;;;;;;;;;10136932;28;20044;-63
2023/04/05 20:25:45;;;;;;;15.07;10.27;;;;;;;;;;10130313;28;20056;-63
2023/04/05 20:30:38;;;;;;;18.80;11.75;;;;;;;;;;10136133;28;20124;-62
2023/04/05 20:35:34;;;;;;;13.05;10.73;;;;;;;;;;10131500;28;20055;-63
2023/04/05 20:40:27;;;;;;;13.88;9.40;;;;;;;;;;10115113;28;20068;-63
2023/04/05 20:45:21;;;;;;;12.05;9.30;;;;;;;;;;10125217;28;20056;-62
2023/04/05 20:50:15;;;;;;;11.13;8.07;;;;;;;;;;10131612;28;20056;-62
2023/04/05 20:55:09;;;;;;;13.18;8.35;;;;;;;;;;10127999;28;20048;-63
2023/04/05 21:00:03;;;;;;;11.60;7.28;;;;;;;;;;10137600;28;20066;-63
2023/04/05 21:04:56;;;;;;;11.65;6.70;;;;;;;;;;10145083;28;20071;-62
2023/04/05 21:09:48;;;;;;;9.93;6.35;;;;;;;;;;10144916;28;20050;-63
2023/04/05 21:14:42;;;;;;;10.05;6.45;;;;;;;;;;10144410;28;20052;-62
2023/04/05 21:19:37;;;;;;;12.35;8.38;;;;;;;;;;10145615;28;20054;-62
2023/04/05 21:24:31;;;;;;;19.05;9.95;;;;;;;;;;10145101;28;20060;-62
2023/04/05 21:29:26;;;;;;;23.92;9.98;;;;;;;;;;10145035;28;20114;-62
2023/04/05 21:34:19;;;;;;;20.05;9.88;;;;;;;;;;10142475;28;20048;-62
2023/04/05 21:39:13;;;;;;;9.43;8.40;;;;;;;;;;10144991;28;20501;-63
2023/04/05 21:44:07;;;;;;;11.20;7.93;;;;;;;;;;10144942;28;20048;-62
2023/04/05 21:49:00;;;;;;;16.05;8.80;;;;;;;;;;10134941;28;20538;-62
2023/04/05 21:53:54;;;;;;;12.10;7.70;;;;;;;;;;10144662;28;20532;-62
2023/04/05 21:58:47;;;;;;;12.40;7.47;;;;;;;;;;10144650;28;20052;-62
2023/04/05 22:03:40;;;;;;;9.25;6.90;;;;;;;;;;10144497;28;20079;-62
2023/04/05 22:08:34;;;;;;;11.68;6.97;;;;;;;;;;10143694;28;20052;-62
2023/04/05 22:13:28;;;;;;;9.98;6.38;;;;;;;;;;10143662;28;20508;-63
2023/04/05 22:18:24;;;;;;;10.32;6.75;;;;;;;;;;10144286;28;20048;-62
2023/04/05 22:23:17;;;;;;;11.40;7.43;;;;;;;;;;10141968;28;20387;-62
2023/04/05 22:28:10;;;;;;;7.07;6.38;;;;;;;;;;10143685;28;20413;-62
2023/04/05 22:33:04;;;;;;;7.55;6.53;;;;;;;;;;10143616;28;20062;-62
2023/04/05 22:37:57;;;;;;;9.65;6.82;;;;;;;;;;10144615;28;20044;-64
2023/04/05 22:42:52;;;;;;;8.10;7.18;;;;;;;;;;10134434;28;20044;-64
2023/04/05 22:47:46;;;;;;;12.73;7.20;;;;;;;;;;10146479;28;20114;-65
2023/04/05 22:52:41;;;;;;;9.20;7.18;;;;;;;;;;10148752;28;20083;-63
2023/04/05 22:57:35;;;;;;;11.13;8.27;;;;;;;;;;10145332;28;20098;-63
2023/04/05 23:02:29;;;;;;;9.15;7.13;;;;;;;;;;10150082;28;20114;-63
2023/04/05 23:07:21;;;;;;;7.50;6.63;;;;;;;;;;10149634;28;20386;-63
2023/04/05 23:12:16;;;;;;;7.25;6.05;;;;;;;;;;10149543;28;20048;-63
2023/04/05 23:17:10;;;;;;;7.30;5.63;;;;;;;;;;10150086;28;20049;-63
2023/04/05 23:22:04;;;;;;;10.15;6.30;;;;;;;;;;10140656;28;20044;-63
2023/04/05 23:26:57;;;;;;;8.63;5.72;;;;;;;;;;10149405;28;20048;-64
2023/04/05 23:31:52;;;;;;;11.45;6.60;;;;;;;;;;10144961;28;20063;-63
2023/04/05 23:36:45;;;;;;;6.57;5.60;;;;;;;;;;10146063;28;20052;-64
2023/04/05 23:41:39;;;;;;;8.50;6.00;;;;;;;;;;10137670;28;20120;-63
2023/04/05 23:46:32;;;;;;;8.15;5.82;;;;;;;;;;10146207;28;20048;-63
2023/04/05 23:51:26;;;;;;;9.07;6.93;;;;;;;;;;10143606;28;20051;-63
2023/04/05 23:56:20;;;;;;;9.73;6.40;;;;;;;;;;10146039;28;20052;-63
